createdAt,value
2023-01-12T00:00:39.090Z,28.40
2023-01-12T00:03:26.896Z,29.80
2023-01-12T00:06:06.259Z,29.90
2023-01-12T00:08:40.445Z,28.90
2023-01-12T00:11:14.835Z,29.20
2023-01-12T00:13:49.049Z,26.40
2023-01-12T00:16:38.213Z,25.70
2023-01-12T00:19:14.338Z,29.20
2023-01-12T00:21:59.871Z,29.50
2023-01-12T00:24:35.845Z,26.40
2023-01-12T00:27:11.161Z,29.00
2023-01-12T00:29:45.376Z,27.00
2023-01-12T00:32:22.532Z,29.50
2023-01-12T00:34:56.485Z,28.40
2023-01-12T00:37:30.569Z,27.90
2023-01-12T00:40:04.562Z,26.60
2023-01-12T00:42:55.896Z,25.30
2023-01-12T00:45:30.474Z,26.30
2023-01-12T00:48:04.175Z,29.10
2023-01-12T00:50:38.459Z,32.10
2023-01-12T00:53:11.923Z,27.80
2023-01-12T00:55:46.486Z,27.00
2023-01-12T00:58:20.617Z,26.50
2023-01-12T01:00:54.010Z,26.80
2023-01-12T01:03:27.690Z,32.40
2023-01-12T01:06:07.039Z,29.20
2023-01-12T01:08:41.062Z,26.30
2023-01-12T01:11:16.982Z,29.10
2023-01-12T01:13:50.776Z,24.70
2023-01-12T01:16:25.740Z,25.60
2023-01-12T01:19:00.877Z,28.60
2023-01-12T01:21:34.703Z,28.50
2023-01-12T01:24:11.142Z,26.90
2023-01-12T01:26:45.378Z,26.20
2023-01-12T01:29:18.892Z,25.80
2023-01-12T01:31:52.947Z,24.90
2023-01-12T01:34:26.901Z,29.60
2023-01-12T01:37:00.870Z,27.40
2023-01-12T01:39:34.416Z,27.70
2023-01-12T01:42:28.446Z,26.50
2023-01-12T01:45:06.410Z,27.00
2023-01-12T01:47:44.505Z,24.60
2023-01-12T01:50:24.688Z,26.70
2023-01-12T01:53:01.556Z,25.20
2023-01-12T01:55:39.388Z,23.70
2023-01-12T01:58:18.001Z,24.50
2023-01-12T02:00:53.068Z,28.20
2023-01-12T02:03:28.012Z,26.60
2023-01-12T02:06:02.382Z,25.70
2023-01-12T02:08:43.225Z,22.80
2023-01-12T02:11:31.646Z,25.00
2023-01-12T02:17:05.597Z,26.00
2023-01-12T02:20:12.170Z,23.10
2023-01-12T02:23:12.789Z,22.70
2023-01-12T02:26:10.768Z,22.00
2023-01-12T02:29:15.128Z,22.30
2023-01-12T02:31:52.928Z,22.90
2023-01-12T02:34:37.764Z,23.90
2023-01-12T02:37:22.425Z,24.70
2023-01-12T02:40:03.673Z,24.40
2023-01-12T02:42:47.965Z,22.70
2023-01-12T02:45:36.824Z,24.30
2023-01-12T02:48:15.772Z,28.40
2023-01-12T02:50:56.129Z,22.00
2023-01-12T02:53:36.639Z,21.10
2023-01-12T02:56:12.100Z,21.40
2023-01-12T02:58:52.931Z,23.20
2023-01-12T03:01:29.046Z,22.40
2023-01-12T03:04:04.398Z,23.00
2023-01-12T03:06:48.550Z,23.00
2023-01-12T03:09:22.478Z,21.60
2023-01-12T03:12:01.201Z,21.30
2023-01-12T03:14:36.944Z,23.20
2023-01-12T03:17:16.455Z,24.70
2023-01-12T03:19:52.139Z,20.90
2023-01-12T03:22:26.392Z,24.10
2023-01-12T03:25:02.631Z,21.50
2023-01-12T03:27:42.238Z,23.30
2023-01-12T03:30:20.563Z,23.50
2023-01-12T03:32:54.948Z,21.20
2023-01-12T03:35:34.950Z,21.80
2023-01-12T03:38:17.681Z,21.60
2023-01-12T03:40:57.781Z,20.40
2023-01-12T03:43:38.500Z,21.80
2023-01-12T03:46:18.368Z,19.70
2023-01-12T03:48:57.124Z,22.90
2023-01-12T03:54:07.577Z,23.80
2023-01-12T03:56:43.510Z,20.50
2023-01-12T03:59:17.774Z,21.50
2023-01-12T04:01:52.032Z,19.80
2023-01-12T04:04:25.950Z,21.20
2023-01-12T04:07:01.725Z,20.70
2023-01-12T04:09:35.779Z,19.20
2023-01-12T04:12:14.474Z,21.00
2023-01-12T04:14:48.990Z,21.30
2023-01-12T04:17:25.600Z,21.70
2023-01-12T04:19:59.284Z,22.10
2023-01-12T04:22:48.182Z,19.60
2023-01-12T04:25:23.598Z,20.30
2023-01-12T04:28:01.203Z,20.40
2023-01-12T04:30:36.328Z,17.80
2023-01-12T04:33:11.830Z,18.50
2023-01-12T04:35:48.453Z,20.20
2023-01-12T04:38:22.105Z,20.50
2023-01-12T04:40:58.394Z,19.90
2023-01-12T04:43:32.209Z,21.00
2023-01-12T04:46:11.199Z,18.80
2023-01-12T04:48:46.155Z,19.70
2023-01-12T04:51:19.988Z,20.30
2023-01-12T04:53:54.007Z,18.80
2023-01-12T04:56:27.493Z,21.90
2023-01-12T04:59:01.769Z,24.90
2023-01-12T05:01:37.149Z,22.50
2023-01-12T05:04:11.291Z,19.90
2023-01-12T05:06:45.306Z,23.70
2023-01-12T05:09:35.989Z,20.70
2023-01-12T05:12:10.210Z,20.30
2023-01-12T05:14:44.002Z,22.90
2023-01-12T05:17:17.742Z,24.30
2023-01-12T05:19:51.559Z,21.20
2023-01-12T05:22:25.113Z,20.50
2023-01-12T05:24:58.993Z,22.10
2023-01-12T05:27:32.961Z,22.60
2023-01-12T05:30:07.932Z,21.60
2023-01-12T05:32:42.730Z,22.40
2023-01-12T05:35:16.779Z,21.20
2023-01-12T05:37:50.605Z,22.10
2023-01-12T05:40:24.666Z,23.90
2023-01-12T05:43:16.029Z,23.40
2023-01-12T05:45:50.187Z,20.70
2023-01-12T05:48:23.987Z,23.70
2023-01-12T05:51:01.029Z,21.30
2023-01-12T05:53:34.701Z,22.60
2023-01-12T05:56:13.669Z,22.00
2023-01-12T05:58:49.904Z,22.80
2023-01-12T06:01:24.921Z,22.00
2023-01-12T06:04:01.109Z,22.90
2023-01-12T06:06:34.936Z,22.80
2023-01-12T06:09:09.230Z,20.40
2023-01-12T06:12:08.953Z,21.90
2023-01-12T06:14:42.664Z,19.40
2023-01-12T06:17:16.181Z,26.60
2023-01-12T06:19:50.063Z,23.20
2023-01-12T06:22:24.260Z,21.50
2023-01-12T06:24:58.192Z,26.20
2023-01-12T06:27:36.263Z,29.60
2023-01-12T06:30:12.585Z,26.10
2023-01-12T06:32:45.870Z,27.30
2023-01-12T06:35:20.112Z,26.40
2023-01-12T06:37:56.616Z,26.70
2023-01-12T06:40:30.329Z,25.60
2023-01-12T06:43:04.006Z,23.40
2023-01-12T06:45:37.458Z,24.50
2023-01-12T06:48:11.703Z,22.60
2023-01-12T06:50:45.201Z,22.80
2023-01-12T06:53:18.750Z,23.20
2023-01-12T06:55:55.489Z,23.70
2023-01-12T06:58:29.171Z,24.90
2023-01-12T07:01:06.325Z,20.60
2023-01-12T07:03:40.272Z,21.60
2023-01-12T07:06:14.839Z,22.20
2023-01-12T07:08:48.480Z,23.00
2023-01-12T07:11:22.283Z,24.50
2023-01-12T07:13:56.939Z,22.50
2023-01-12T07:16:30.626Z,24.90
2023-01-12T07:19:04.348Z,25.00
2023-01-12T07:21:38.133Z,23.60
2023-01-12T07:24:12.241Z,23.70
2023-01-12T07:26:45.985Z,23.70
2023-01-12T07:29:19.865Z,24.10
2023-01-12T07:31:54.095Z,23.50
2023-01-12T07:34:28.081Z,22.90
2023-01-12T07:37:01.790Z,23.10
2023-01-12T07:39:35.632Z,25.70
2023-01-12T07:42:26.044Z,22.80
2023-01-12T07:44:59.672Z,23.50
2023-01-12T07:47:33.466Z,21.90
2023-01-12T07:50:08.302Z,28.30
2023-01-12T07:52:41.885Z,21.70
2023-01-12T07:55:17.059Z,24.40
2023-01-12T07:58:00.221Z,21.70
2023-01-12T08:00:34.602Z,21.70
2023-01-12T08:03:10.429Z,24.90
2023-01-12T08:05:44.503Z,21.50
2023-01-12T08:08:18.271Z,27.60
2023-01-12T08:10:52.515Z,21.70
2023-01-12T08:13:26.188Z,26.70
2023-01-12T08:16:05.458Z,22.90
2023-01-12T08:18:45.382Z,24.50
2023-01-12T08:21:23.793Z,22.70
2023-01-12T08:24:01.127Z,24.80
2023-01-12T08:26:38.528Z,22.30
2023-01-12T08:29:16.430Z,23.30
2023-01-12T08:31:51.096Z,23.60
2023-01-12T08:34:24.818Z,23.30
2023-01-12T08:37:00.421Z,23.50
2023-01-12T08:39:35.620Z,23.20
2023-01-12T08:42:09.533Z,24.30
2023-01-12T08:44:43.350Z,23.30
2023-01-12T08:47:22.107Z,20.90
2023-01-12T08:49:55.738Z,21.30
2023-01-12T08:52:33.284Z,20.10
2023-01-12T08:55:11.648Z,22.40
2023-01-12T08:57:45.659Z,23.00
2023-01-12T09:00:21.962Z,18.60
2023-01-12T09:02:55.651Z,20.70
2023-01-12T09:05:30.681Z,18.40
2023-01-12T09:08:04.450Z,19.10
2023-01-12T09:10:38.277Z,18.00
2023-01-12T09:13:16.245Z,19.20
2023-01-12T09:16:01.325Z,18.60
2023-01-12T09:18:44.646Z,20.80
2023-01-12T09:21:19.810Z,16.90
2023-01-12T09:23:53.968Z,18.20
2023-01-12T09:26:32.288Z,16.90
2023-01-12T09:29:06.471Z,16.10
2023-01-12T09:31:41.864Z,18.90
2023-01-12T09:34:15.881Z,19.30
2023-01-12T09:36:52.801Z,16.70
2023-01-12T09:39:29.302Z,17.80
2023-01-12T09:42:20.907Z,19.80
2023-01-12T09:45:11.999Z,17.70
2023-01-12T09:47:55.696Z,15.90
2023-01-12T09:50:34.219Z,17.20
2023-01-12T09:53:14.431Z,20.00
2023-01-12T09:55:53.770Z,18.50
2023-01-12T09:58:40.420Z,17.20
2023-01-12T10:01:28.789Z,15.80
2023-01-12T10:04:05.191Z,14.50
2023-01-12T10:06:39.545Z,20.50
2023-01-12T10:09:18.171Z,17.50
2023-01-12T10:14:53.845Z,14.30
2023-01-12T10:17:50.307Z,17.50
2023-01-12T10:20:34.322Z,14.90
2023-01-12T10:23:17.149Z,20.60
2023-01-12T10:25:52.238Z,14.70
2023-01-12T10:28:30.070Z,15.60
2023-01-12T10:31:04.366Z,15.90
2023-01-12T10:33:37.958Z,14.70
2023-01-12T10:36:18.105Z,17.70
2023-01-12T10:39:03.566Z,15.70
2023-01-12T10:41:38.385Z,14.10
2023-01-12T10:44:18.020Z,14.00
2023-01-12T10:47:11.889Z,12.60
2023-01-12T10:49:45.518Z,12.40
2023-01-12T10:52:39.493Z,16.30
2023-01-12T10:55:21.712Z,12.20
2023-01-12T10:57:56.087Z,14.40
2023-01-12T11:00:31.490Z,14.50
2023-01-12T11:03:05.088Z,13.70
2023-01-12T11:05:40.174Z,17.10
2023-01-12T11:08:27.797Z,14.70
2023-01-12T11:11:16.285Z,16.10
2023-01-12T11:16:26.599Z,16.60
2023-01-12T11:19:18.023Z,14.90
2023-01-12T11:21:55.875Z,15.80
2023-01-12T11:24:53.588Z,16.40
2023-01-12T11:27:31.629Z,16.10
2023-01-12T11:30:13.498Z,17.00
2023-01-12T11:32:55.931Z,13.70
2023-01-12T11:35:37.943Z,16.10
2023-01-12T11:38:18.926Z,13.40
2023-01-12T11:40:54.263Z,17.00
2023-01-12T11:43:56.225Z,14.50
2023-01-12T11:46:36.503Z,15.30
2023-01-12T11:49:18.472Z,14.20
2023-01-12T11:51:57.347Z,16.50
2023-01-12T11:57:37.104Z,13.90
2023-01-12T12:00:29.763Z,14.60
2023-01-12T12:03:19.862Z,15.10
2023-01-12T12:06:01.100Z,13.00
2023-01-12T12:08:49.469Z,16.10
2023-01-12T12:11:36.467Z,14.30
2023-01-12T12:14:29.347Z,12.90
2023-01-12T12:17:11.213Z,14.70
2023-01-12T12:19:55.565Z,12.40
2023-01-12T12:22:48.891Z,13.70
2023-01-12T12:25:30.827Z,11.40
2023-01-12T12:28:29.598Z,13.10
2023-01-12T12:31:17.723Z,14.00
2023-01-12T12:34:22.167Z,13.20
2023-01-12T12:37:03.010Z,12.60
2023-01-12T12:39:47.894Z,14.10
2023-01-12T12:42:54.189Z,13.70
2023-01-12T12:45:37.609Z,16.30
2023-01-12T12:48:16.862Z,12.40
2023-01-12T12:51:01.926Z,11.80
2023-01-12T12:53:37.559Z,12.80
2023-01-12T12:56:14.679Z,12.40
2023-01-12T12:58:50.039Z,13.50
2023-01-12T13:01:58.671Z,12.90
2023-01-12T13:05:04.985Z,13.30
2023-01-12T13:07:45.726Z,16.00
2023-01-12T13:10:35.783Z,11.80
2023-01-12T13:13:27.817Z,13.80
2023-01-12T13:16:47.518Z,14.20
2023-01-12T13:19:39.122Z,12.50
2023-01-12T13:22:45.743Z,12.30
2023-01-12T13:25:57.117Z,12.90
2023-01-12T13:28:31.083Z,13.60
2023-01-12T13:31:06.945Z,12.20
2023-01-12T13:33:40.693Z,12.90
2023-01-12T13:36:14.982Z,11.80
2023-01-12T13:39:14.657Z,14.50
2023-01-12T13:42:08.247Z,12.70
2023-01-12T13:44:46.227Z,11.00
2023-01-12T13:47:27.185Z,12.90
2023-01-12T13:50:04.190Z,10.90
2023-01-12T13:52:39.784Z,13.10
2023-01-12T13:55:27.898Z,10.90
2023-01-12T13:58:04.777Z,11.00
2023-01-12T14:00:38.385Z,10.70
2023-01-12T14:03:27.250Z,10.90
2023-01-12T14:09:06.651Z,13.20
2023-01-12T14:12:04.888Z,10.40
2023-01-12T14:15:17.051Z,11.40
2023-01-12T14:17:53.148Z,11.10
2023-01-12T14:20:30.181Z,11.30
2023-01-12T14:23:25.570Z,10.70
2023-01-12T14:26:20.178Z,11.10
2023-01-12T14:28:54.661Z,10.40
2023-01-12T14:31:33.666Z,11.10
2023-01-12T14:34:08.824Z,11.80
2023-01-12T14:36:46.997Z,10.80
2023-01-12T14:39:23.124Z,11.30
2023-01-12T14:42:16.227Z,10.30
2023-01-12T14:45:15.111Z,12.30
2023-01-12T14:47:48.850Z,13.20
2023-01-12T14:50:24.275Z,11.20
2023-01-12T14:52:58.054Z,11.90
2023-01-12T14:55:41.627Z,21.50
2023-01-12T14:58:23.555Z,18.20
2023-01-12T15:00:57.506Z,12.90
2023-01-12T15:03:42.886Z,14.10
2023-01-12T15:06:19.529Z,15.90
2023-01-12T15:09:01.974Z,18.60
2023-01-12T15:11:37.949Z,18.30
2023-01-12T15:14:25.649Z,17.70
2023-01-12T15:17:17.047Z,19.00
2023-01-12T15:20:08.631Z,16.10
2023-01-12T15:23:08.777Z,14.40
2023-01-12T15:25:43.238Z,17.50
2023-01-12T15:28:17.338Z,21.20
2023-01-12T15:30:51.033Z,19.10
2023-01-12T15:33:25.384Z,16.50
2023-01-12T15:35:59.189Z,16.30
2023-01-12T15:38:32.755Z,17.00
2023-01-12T15:41:07.719Z,19.30
2023-01-12T15:43:41.398Z,16.70
2023-01-12T15:46:21.729Z,14.80
2023-01-12T15:48:55.468Z,15.00
2023-01-12T15:51:29.185Z,15.40
2023-01-12T15:54:03.215Z,16.00
2023-01-12T15:56:37.025Z,15.30
2023-01-12T15:59:11.021Z,17.10
2023-01-12T16:01:47.317Z,15.00
2023-01-12T16:07:18.470Z,17.60
2023-01-12T16:09:52.147Z,17.30
2023-01-12T16:12:26.476Z,18.00
2023-01-12T16:15:01.553Z,15.00
2023-01-12T16:17:35.826Z,20.20
2023-01-12T16:20:12.078Z,20.50
2023-01-12T16:22:47.034Z,19.40
2023-01-12T16:25:21.309Z,24.10
2023-01-12T16:28:00.983Z,23.00
2023-01-12T16:30:35.060Z,23.80
2023-01-12T16:33:08.762Z,23.30
2023-01-12T16:35:42.451Z,22.30
2023-01-12T16:38:17.582Z,18.90
2023-01-12T16:40:51.824Z,19.30
2023-01-12T16:43:26.509Z,19.10
2023-01-12T16:46:00.535Z,19.80
2023-01-12T16:48:38.889Z,23.10
2023-01-12T16:51:17.986Z,20.40
2023-01-12T16:56:25.508Z,20.90
2023-01-12T16:58:59.086Z,19.40
2023-01-12T17:01:33.614Z,22.30
2023-01-12T17:04:07.690Z,24.30
2023-01-12T17:06:42.541Z,20.90
2023-01-12T17:09:17.189Z,17.90
2023-01-12T17:11:52.955Z,21.50
2023-01-12T17:14:27.920Z,24.00
2023-01-12T17:17:04.301Z,21.60
2023-01-12T17:19:40.171Z,23.80
2023-01-12T17:22:14.831Z,26.90
2023-01-12T17:24:49.144Z,23.30
2023-01-12T17:27:23.003Z,25.70
2023-01-12T17:29:56.604Z,25.40
2023-01-12T17:32:30.496Z,24.50
2023-01-12T17:35:07.534Z,24.40
2023-01-12T17:37:41.210Z,23.90
2023-01-12T17:40:16.536Z,32.10
2023-01-12T17:43:08.100Z,23.50
2023-01-12T17:45:45.311Z,24.30
2023-01-12T17:48:20.081Z,23.10
2023-01-12T17:50:53.849Z,21.10
2023-01-12T17:53:28.290Z,26.00
2023-01-12T17:56:06.499Z,24.90
2023-01-12T17:58:41.227Z,29.20
2023-01-12T18:01:17.835Z,27.20
2023-01-12T18:03:51.939Z,26.30
2023-01-12T18:06:27.183Z,27.10
2023-01-12T18:09:01.716Z,25.20
2023-01-12T18:11:36.417Z,24.30
2023-01-12T18:14:11.323Z,25.90
2023-01-12T18:16:45.550Z,25.00
2023-01-12T18:19:19.723Z,28.70
2023-01-12T18:21:54.176Z,25.50
2023-01-12T18:24:27.869Z,23.90
2023-01-12T18:27:01.870Z,27.20
2023-01-12T18:29:36.932Z,24.20
2023-01-12T18:32:11.707Z,23.90
2023-01-12T18:34:46.954Z,22.80
2023-01-12T18:37:21.273Z,23.20
2023-01-12T18:39:55.946Z,23.00
2023-01-12T18:42:47.601Z,22.90
2023-01-12T18:45:22.512Z,22.50
2023-01-12T18:48:25.181Z,23.20
2023-01-12T18:51:17.274Z,23.20
2023-01-12T18:53:52.307Z,18.10
2023-01-12T18:56:27.550Z,20.40
2023-01-12T18:59:02.027Z,22.20
2023-01-12T19:01:36.274Z,22.00
2023-01-12T19:04:15.995Z,23.60
2023-01-12T19:06:58.956Z,17.10
2023-01-12T19:09:39.107Z,19.50
2023-01-12T19:12:14.846Z,19.00
2023-01-12T19:15:07.343Z,16.80
2023-01-12T19:17:43.482Z,16.40
2023-01-12T19:20:18.125Z,20.60
2023-01-12T19:23:09.653Z,18.80
2023-01-12T19:26:01.758Z,17.70
2023-01-12T19:28:40.983Z,18.70
2023-01-12T19:31:17.278Z,20.80
2023-01-12T19:33:54.347Z,17.50
2023-01-12T19:36:29.356Z,18.00
2023-01-12T19:39:07.592Z,18.00
2023-01-12T19:42:01.961Z,17.10
2023-01-12T19:44:37.618Z,19.50
2023-01-12T19:47:13.452Z,15.90
2023-01-12T19:49:47.677Z,17.40
2023-01-12T19:52:22.683Z,18.00
2023-01-12T19:54:58.416Z,18.50
2023-01-12T19:57:34.236Z,19.10
2023-01-12T20:00:14.324Z,16.10
2023-01-12T20:02:49.362Z,18.90
2023-01-12T20:05:27.719Z,16.60
2023-01-12T20:08:05.421Z,16.50
2023-01-12T20:10:42.630Z,17.50
2023-01-12T20:13:18.960Z,16.80
2023-01-12T20:15:58.147Z,20.00
2023-01-12T20:18:33.404Z,23.40
2023-01-12T20:21:12.925Z,21.60
2023-01-12T20:23:49.116Z,17.10
2023-01-12T20:26:26.140Z,14.90
2023-01-12T20:29:01.627Z,19.50
2023-01-12T20:31:37.758Z,16.40
2023-01-12T20:34:12.727Z,19.30
2023-01-12T20:36:47.882Z,18.30
2023-01-12T20:39:24.444Z,17.60
2023-01-12T20:42:01.967Z,17.70
2023-01-12T20:44:37.532Z,23.20
2023-01-12T20:47:12.971Z,18.80
2023-01-12T20:49:46.828Z,18.20
2023-01-12T20:52:21.360Z,16.60
2023-01-12T20:54:56.561Z,14.50
2023-01-12T20:57:31.843Z,19.60
2023-01-12T21:00:06.747Z,16.50
2023-01-12T21:02:42.689Z,17.80
2023-01-12T21:05:18.933Z,16.80
2023-01-12T21:08:00.015Z,19.80
2023-01-12T21:10:42.788Z,20.70
2023-01-12T21:13:16.378Z,18.10
2023-01-12T21:15:50.328Z,15.60
2023-01-12T21:18:23.969Z,17.60
2023-01-12T21:20:58.313Z,19.30
2023-01-12T21:23:32.173Z,17.80
2023-01-12T21:26:08.332Z,22.70
2023-01-12T21:28:43.007Z,20.20
2023-01-12T21:31:17.144Z,18.30
2023-01-12T21:33:51.113Z,18.60
2023-01-12T21:36:25.308Z,25.80
2023-01-12T21:38:59.529Z,17.60
2023-01-12T21:41:53.336Z,18.40
2023-01-12T21:44:27.948Z,15.20
2023-01-12T21:47:02.298Z,15.30
2023-01-12T21:49:36.161Z,17.00
2023-01-12T21:52:09.774Z,18.50
2023-01-12T21:54:43.686Z,14.60
2023-01-12T21:57:17.444Z,15.00
2023-01-12T21:59:50.997Z,16.60
2023-01-12T22:02:24.736Z,15.30
2023-01-12T22:04:58.729Z,16.60
2023-01-12T22:07:32.587Z,15.60
2023-01-12T22:10:20.437Z,15.30
2023-01-12T22:12:57.206Z,17.70
2023-01-12T22:15:32.083Z,18.80
2023-01-12T22:18:07.376Z,15.00
2023-01-12T22:20:42.290Z,15.80
2023-01-12T22:23:16.803Z,14.90
2023-01-12T22:25:51.217Z,16.80
2023-01-12T22:28:24.883Z,17.00
2023-01-12T22:30:58.355Z,16.30
2023-01-12T22:33:32.554Z,17.20
2023-01-12T22:36:08.642Z,15.10
2023-01-12T22:38:42.983Z,15.10
2023-01-12T22:41:16.904Z,16.10
2023-01-12T22:43:51.408Z,14.10
2023-01-12T22:46:27.132Z,16.60
2023-01-12T22:49:01.676Z,14.10
2023-01-12T22:51:35.407Z,16.40
2023-01-12T22:54:09.193Z,14.40
2023-01-12T22:56:43.006Z,15.20
2023-01-12T22:59:17.026Z,16.70
2023-01-12T23:01:50.915Z,14.70
2023-01-12T23:04:25.003Z,14.30
2023-01-12T23:06:58.683Z,13.60
2023-01-12T23:09:32.435Z,18.50
2023-01-12T23:12:06.343Z,15.60
2023-01-12T23:14:40.693Z,15.80
2023-01-12T23:17:15.080Z,15.50
2023-01-12T23:19:49.233Z,14.80
2023-01-12T23:22:22.798Z,14.80
2023-01-12T23:24:56.631Z,18.20
2023-01-12T23:27:30.620Z,14.70
2023-01-12T23:30:04.604Z,18.20
2023-01-12T23:35:30.072Z,15.00
2023-01-12T23:38:04.142Z,13.10
2023-01-12T23:40:37.931Z,15.10
2023-01-12T23:43:11.988Z,15.20
2023-01-12T23:45:45.783Z,13.80
2023-01-12T23:48:19.531Z,15.30
2023-01-12T23:50:54.155Z,15.10
2023-01-12T23:53:27.795Z,16.40
2023-01-12T23:56:06.949Z,14.40
2023-01-12T23:58:40.685Z,14.80
